• Join FlightAware (Why Join?)
  • Login
  • US Flag 
02:07PM EDT


 

Airport Tracker/Info


-or-


 

Live Flight TrackerFlight Track Log ✈ N306UP ✈ 17-Apr-2013 ✈ PANC - RJAA / NRT

Flight Track Log - Related Links

Times and Time Zones

All times are in EDT time to prevent confusion due to time zone crossing. See the N306UP flight status page for this flight to view local times or setup timezone preferences in your user account.

Time Position Orientation Groundspeed Altitude Reporting Facility
EDT Latitude Longitude Course Direction KTS MPH feet Rate Location/Type
12:40PM 61.1910 -150.0090 176° South 152 175 400  Level FlightAware
12:41PM 61.2060 -150.0270 330° Northwest 152 175 1,700 2,580 Climbing FlightAware
12:41PM 61.2230 -150.0540 323° Northwest 162 186 2,800 1,740 Climbing FlightAware
12:42PM 61.2400 -150.0820 322° Northwest 199 229 3,300 1,620 Climbing FlightAware
12:42PM 61.2500 -150.1000 319° Northwest 207 238 3,900 2,400 Climbing FlightAware
12:42PM 61.2590 -150.1250 307° West 222 255 4,500 2,160 Climbing FlightAware
12:42PM 61.2630 -150.1570 285° West 241 277 5,000 2,220 Climbing FlightAware
12:43PM 61.2640 -150.2180 272° West 261 300 6,000 2,820 Climbing FlightAware
12:43PM 61.2650 -150.2940 272° West 264 304 7,600 2,880 Climbing FlightAware
12:44PM 61.2660 -150.3670 272° West 270 311 8,900 2,460 Climbing FlightAware
12:44PM 61.2670 -150.4360 272° West 280 322 9,900 1,920 Climbing FlightAware
12:45PM 61.2690 -150.5400 272° West 311 358 11,000 2,220 Climbing FlightAware
12:47PM 61.2756 -150.9708 276° West  Level Estimated
12:47PM 61.2740 -150.9370 276° West 393 452 15,700  Level FlightAware
12:48PM 61.2770 -151.1960 271° West 382 440 20,300 3,360 Climbing FlightAware
12:49PM 61.2800 -151.4560 271° West 388 447 23,600 2,580 Climbing FlightAware
12:50PM 61.2820 -151.7170 271° West 397 457 26,400 2,100 Climbing FlightAware
12:51PM 61.2830 -151.9900 271° West 413 475 28,500 1,920 Climbing FlightAware
12:53PM 61.2850 -152.2670 271° West 414 476 30,900 1,740 Climbing FlightAware
12:53PM 61.2850 -152.4500 270° West 424 488 31,900 1,440 Climbing FlightAware
12:54PM 61.2860 -152.5490 271° West 423 487 32,600 1,500 Climbing FlightAware
12:54PM 61.2860 -152.7340 270° West 425 489 33,700 1,260 Climbing FlightAware
12:55PM 61.2860 -152.9010 270° West 428 493 34,400 1,080 Climbing FlightAware
12:56PM 61.2860 -153.1200 270° West 430 495 35,500 960 Climbing FlightAware
12:57PM 61.2850 -153.3080 269° West 433 498 36,000 300 Climbing FlightAware
12:57PM 61.2850 -153.4780 270° West 434 499 36,000  Level FlightAware
12:58PM 61.2840 -153.6460 269° West 433 498 36,000  Level FlightAware
12:59PM 61.2830 -153.8310 269° West 435 501 36,000  Level FlightAware
01:00PM 61.2800 -154.1210 269° West 435 501 36,000  Level FlightAware
01:01PM 61.2790 -154.2860 269° West 434 499 36,000  Level FlightAware
01:01PM 61.2770 -154.4380 268° West 433 498 36,000  Level FlightAware
01:02PM 61.2750 -154.6190 269° West 433 498 36,000  Level FlightAware
01:03PM 61.2730 -154.7720 269° West 433 498 36,000  Level FlightAware
01:04PM 61.2690 -155.0350 268° West 431 496 36,000  Level FlightAware
01:04PM 61.2670 -155.2000 269° West 431 496 36,000  Level FlightAware
01:05PM 61.2660 -155.3410 269° West 431 496 36,000  Level FlightAware
01:06PM 61.2650 -155.4820 269° West 431 496 36,000  Level FlightAware
01:07PM 61.2630 -155.6590 269° West 431 496 36,000  Level FlightAware
01:07PM 61.2620 -155.8000 269° West 431 496 36,000  Level FlightAware
01:08PM 61.2610 -155.9410 269° West 431 496 36,000  Level FlightAware
01:09PM 61.2600 -156.0820 269° West 431 496 36,000  Level FlightAware
01:09PM 61.2590 -156.2230 269° West 431 496 36,000  Level FlightAware
01:10PM 61.2570 -156.3640 268° West 431 496 36,000  Level FlightAware
01:11PM 61.2560 -156.5400 269° West 431 496 36,000  Level FlightAware
01:11PM 61.2550 -156.6810 269° West 431 496 36,000  Level FlightAware
01:12PM 61.2540 -156.8220 269° West 431 496 36,000  Level FlightAware
01:13PM 61.2520 -156.9630 268° West 431 496 36,000  Level FlightAware
01:13PM 61.2510 -157.1040 269° West 431 496 36,000  Level FlightAware
01:14PM 61.2500 -157.6167 269° West 430 495 36,000  Level Anchorage Center
01:15PM 61.2500 -157.8667 270° West 430 495 36,000  Level Anchorage Center
01:16PM 61.2333 -158.1333 263° West 430 495 36,000  Level Anchorage Center
01:17PM 61.2333 -158.3833 270° West 430 495 36,000  Level Anchorage Center
01:18PM 61.2333 -158.6333 270° West 430 495 36,000  Level Anchorage Center
01:19PM 61.2333 -158.8833 270° West 430 495 36,000  Level Anchorage Center
01:20PM 61.2333 -159.1333 270° West 430 495 36,000  Level Anchorage Center
01:21PM 61.2167 -159.3833 262° West 420 483 36,000  Level Anchorage Center
01:22PM 61.2167 -159.6333 270° West 420 483 36,000  Level Anchorage Center
01:23PM 61.2167 -159.8667 270° West 420 483 36,000  Level Anchorage Center
01:24PM 61.2167 -160.1167 270° West 430 495 36,000  Level Anchorage Center
01:25PM 61.2000 -160.3667 262° West 420 483 36,000  Level Anchorage Center
01:26PM 61.2000 -160.6167 270° West 420 483 36,000  Level Anchorage Center
01:27PM 61.1833 -160.8500 262° West 420 483 36,000  Level Anchorage Center
01:28PM 61.1833 -161.1000 270° West 410 472 36,000  Level Anchorage Center
01:29PM 61.1667 -161.3500 262° West 430 495 36,000  Level Anchorage Center
01:30PM 61.1667 -161.6000 270° West 420 483 36,000  Level Anchorage Center
01:31PM 61.1500 -161.8333 262° West 430 495 36,000  Level Anchorage Center
01:32PM 61.1500 -162.0833 270° West 410 472 36,000 240 Level Anchorage Center
01:33PM 61.1333 -162.3333 262° West 420 483 36,500  Climbing Anchorage Center
01:34PM 61.1333 -162.5667 270° West 420 483 36,000 -300 Descending Anchorage Center
01:35PM 61.1167 -162.8167 262° West 420 483 36,000  Level Anchorage Center
01:36PM 61.1000 -163.0667 262° West 420 483 36,000  Level Anchorage Center
01:37PM 61.0667 -163.3000 254° West 430 495 36,000  Level Anchorage Center
01:38PM 61.0333 -163.5333 254° West 430 495 36,000  Level Anchorage Center
01:39PM 61.0000 -163.7833 255° West 430 495 36,000  Level Anchorage Center
01:40PM 60.9667 -164.0167 254° West 430 495 36,000  Level Anchorage Center
01:41PM 60.9333 -164.2667 255° West 430 495 36,000  Level Anchorage Center
01:42PM 60.8833 -164.5000 246° West 430 495 36,000  Level Anchorage Center
01:43PM 60.8500 -164.7333 254° West 430 495 36,000  Level Anchorage Center
01:44PM 60.8167 -164.9667 254° West 430 495 36,000  Level Anchorage Center
01:45PM 60.7833 -165.2000 254° West 430 495 36,000  Level Anchorage Center
01:46PM 60.7500 -165.4000 251° West 430 495 36,000  Level Anchorage Center
01:47PM 60.7167 -165.6333 254° West 420 483 36,000  Level Anchorage Center
01:48PM 60.6833 -165.8667 254° West 420 483 36,000  Level Anchorage Center
01:49PM 60.6333 -166.0833 245° Southwest 420 483 36,000  Level Anchorage Center
01:50PM 60.6000 -166.3167 254° West 420 483 36,000  Level Anchorage Center
01:51PM 60.5667 -166.5333 253° West 420 483 36,000  Level Anchorage Center
01:52PM 60.5333 -166.7667 254° West 420 483 36,000  Level Anchorage Center
01:53PM 60.4833 -167.0000 247° West 420 483 36,000  Level Anchorage Center
01:54PM 60.4500 -167.2167 253° West 420 483 36,000  Level Anchorage Center
01:55PM 60.4000 -167.4500 247° West 410 472 36,000  Level Anchorage Center
01:56PM 60.3667 -167.6667 253° West 420 483 36,000  Level Anchorage Center
01:57PM 60.3167 -167.9000 247° West 420 483 36,000  Level Anchorage Center
01:58PM 60.2833 -168.1167 253° West 420 483 36,000  Level Anchorage Center
01:59PM 60.2333 -168.3500 247° West 420 483 36,000  Level Anchorage Center
02:00PM 60.2000 -168.5667 253° West 420 483 36,000  Level Anchorage Center
02:01PM 60.1667 -168.8000 254° West 420 483 36,000  Level Anchorage Center
02:02PM 60.1167 -169.0167 245° Southwest 420 483 36,000  Level Anchorage Center
02:03PM 60.0667 -169.2333 245° Southwest 420 483 36,000  Level Anchorage Center
02:04PM 60.0333 -169.4667 254° West 420 483 36,000  Level Anchorage Center
02:05PM 59.9833 -169.6833 245° Southwest 420 483 36,000  Level Anchorage Center
02:06PM 59.9500 -169.9000 253° West 420 483 36,000  Level Anchorage Center
02:07PM 59.9000 -170.1333 247° West 430 495 36,000  Level Anchorage Center
02:08PM 59.8667 -170.3333 252° West 430 495 36,000  Level Anchorage Center
02:09PM 59.8167 -170.5333 244° Southwest 410 472 36,000  Level Anchorage Center
02:10PM 59.7667 -170.7500 245° Southwest 420 483 36,000  Level Anchorage Center
02:11PM 59.7333 -170.9833 254° West 420 483 36,000  Level Anchorage Center
02:12PM 59.6833 -171.2000 246° West 420 483 36,000  Level Anchorage Center
02:13PM 59.6333 -171.4167 246° West 420 483 36,000  Level Anchorage Center
02:14PM 59.5833 -171.6333 246° West 430 495 36,000  Level Anchorage Center
02:15PM 59.5500 -171.8333 252° West 420 483 36,000  Level Anchorage Center
02:16PM 59.5000 -172.0667 247° West 430 495 36,000  Level Anchorage Center
02:17PM 59.4500 -172.2833 246° West 430 495 36,000  Level Anchorage Center
02:18PM 59.4167 -172.5000 253° West 430 495 36,000  Level Anchorage Center
02:19PM 59.3667 -172.7167 246° West 430 495 36,000  Level Anchorage Center
02:20PM 59.3167 -172.9333 246° West 430 495 36,000  Level Anchorage Center
02:21PM 59.2667 -173.1500 246° West 430 495 36,000  Level Anchorage Center
02:22PM 59.2333 -173.3667 253° West 430 495 36,000  Level Anchorage Center
02:23PM 59.1833 -173.6000 247° West 440 506 36,000  Level Anchorage Center
02:24PM 59.1333 -173.8167 246° West 440 506 36,000  Level Anchorage Center
02:25PM 59.0833 -174.0333 246° West 440 506 36,000  Level Anchorage Center
02:26PM 59.0333 -174.2500 246° West 440 506 36,000  Level Anchorage Center
02:27PM 58.9833 -174.4667 246° West 430 495 36,000  Level Anchorage Center
02:28PM 58.9333 -174.6833 246° West 430 495 36,000  Level Anchorage Center
02:29PM 58.8833 -174.9000 246° West 430 495 36,000  Level Anchorage Center
02:30PM 58.8333 -175.1333 248° West 440 506 36,000  Level Anchorage Center
02:31PM 58.8000 -175.3333 252° West 430 495 36,000  Level Anchorage Center
02:32PM 58.7333 -175.5500 239° Southwest 440 506 36,000  Level Anchorage Center
02:33PM 58.6833 -175.7667 246° West 440 506 36,000  Level Anchorage Center
02:34PM 58.6333 -175.9833 246° West 440 506 36,000  Level Anchorage Center
02:35PM 58.5833 -176.2000 246° West 440 506 36,000  Level Anchorage Center
02:36PM 58.5333 -176.4167 246° West 440 506 36,000  Level Anchorage Center
02:37PM 58.4833 -176.6333 246° West 440 506 36,000  Level Anchorage Center
02:38PM 58.4333 -176.8500 246° West 440 506 36,000  Level Anchorage Center
02:39PM 58.3833 -177.0500 245° Southwest 440 506 36,000  Level Anchorage Center
02:41PM 58.3167 -177.3833 244° Southwest 446 513 36,000  Level Anchorage Center
02:48PM 57.9237 -178.8976 243° Southwest 446 513 36,000  Level FlightAware Transoceanic
02:49PM 57.8661 -179.1112 243° Southwest 446 513 36,000  Level FlightAware Transoceanic
02:50PM 57.8081 -179.3241 243° Southwest 446 513 36,000  Level FlightAware Transoceanic
02:50PM 57.7833 -179.4000 243° Southwest 452 520 36,000  Level Anchorage Center
02:51PM 57.7498 -179.5364 243° Southwest 446 513 36,000  Level FlightAware Transoceanic
02:52PM 57.6912 -179.7479 242° Southwest 446 513 36,000  Level FlightAware Transoceanic
02:53PM 57.6322 -179.9588 242° Southwest 446 513 36,000  Level FlightAware Transoceanic
02:54PM 57.5728 179.8311 242° Southwest 446 513 36,000  Level FlightAware Transoceanic
02:55PM 57.5131 179.6216 242° Southwest 446 513 36,000  Level FlightAware Transoceanic
02:56PM 57.4530 179.4128 242° Southwest 446 513 36,000  Level FlightAware Transoceanic
02:57PM 57.4226 179.3198 242° Southwest 452 520 36,000  Level FlightAware Transoceanic
02:58PM 57.3613 179.1089 242° Southwest 452 520 36,000  Level FlightAware Transoceanic
02:59PM 57.2995 178.8988 241° Southwest 452 520 36,000  Level FlightAware Transoceanic
03:00PM 57.2375 178.6893 241° Southwest 452 520 36,000  Level FlightAware Transoceanic
03:00PM 57.2167 178.6167 241° Southwest 457 526 36,000  Level Anchorage Center
03:01PM 57.1751 178.4805 241° Southwest 452 520 36,000  Level FlightAware Transoceanic
03:02PM 57.1123 178.2725 241° Southwest 452 520 36,000  Level FlightAware Transoceanic
03:03PM 57.0492 178.0651 241° Southwest 452 520 36,000  Level FlightAware Transoceanic
03:04PM 56.9857 177.8584 240° Southwest 452 520 36,000  Level FlightAware Transoceanic
03:05PM 56.9220 177.6525 240° Southwest 452 520 36,000  Level FlightAware Transoceanic
03:06PM 56.8401 177.3886 240° Southwest 457 526 36,000  Level FlightAware Transoceanic
03:06PM 56.8333 177.3500 240° Southwest 459 528 36,000  Level Anchorage Center
03:07PM 56.7762 177.1864 240° Southwest 457 526 36,000  Level FlightAware Transoceanic
03:08PM 56.7120 176.9848 240° Southwest 457 526 36,000  Level FlightAware Transoceanic
03:09PM 56.6474 176.7839 240° Southwest 457 526 36,000  Level FlightAware Transoceanic
03:10PM 56.5825 176.5837 239° Southwest 457 526 36,000  Level FlightAware Transoceanic
03:10PM 56.6167 176.6500 239° Southwest 461 531 36,000  Level Anchorage Center
03:11PM 56.5173 176.3842 239° Southwest 457 526 36,000  Level FlightAware Transoceanic
03:12PM 56.4518 176.1854 239° Southwest 457 526 36,000  Level FlightAware Transoceanic
03:13PM 56.4316 176.1118 239° Southwest 459 528 36,000  Level FlightAware Transoceanic
03:14PM 56.3634 175.9080 239° Southwest 459 528 36,000  Level FlightAware Transoceanic
03:15PM 56.2950 175.7049 239° Southwest 459 528 36,000  Level FlightAware Transoceanic
03:16PM 56.2126 175.4454 238° Southwest 461 531 36,000  Level FlightAware Transoceanic
03:17PM 56.1441 175.2471 238° Southwest 461 531 36,000  Level FlightAware Transoceanic
03:17PM 56.1167 175.2333 237° Southwest 470 541 36,000  Level Anchorage Center
03:18PM 56.0754 175.0495 238° Southwest 461 531 36,000  Level FlightAware Transoceanic
03:19PM 56.0062 174.8526 238° Southwest 461 531 36,000  Level FlightAware Transoceanic
03:19PM 55.9833 174.8500 238° Southwest 460 529 36,000  Level Anchorage Center
03:20PM 55.9368 174.6565 238° Southwest 461 531 36,000  Level FlightAware Transoceanic
03:20PM 55.9167 174.6500 239° Southwest 450 518 36,000  Level Anchorage Center
03:21PM 55.8671 174.4610 237° Southwest 461 531 36,000  Level FlightAware Transoceanic
03:21PM 55.8500 174.4667 237° Southwest 460 529 36,000  Level Anchorage Center
03:22PM 55.7971 174.2663 237° Southwest 461 531 36,000  Level FlightAware Transoceanic
03:22PM 55.7833 174.2500 241° Southwest 470 541 36,000  Level Anchorage Center
03:23PM 55.7167 174.1000 232° Southwest 460 529 36,000  Level Anchorage Center
03:24PM 55.6500 173.8833 241° Southwest 460 529 36,000  Level Anchorage Center
03:25PM 55.5833 173.7167 235° Southwest 460 529 36,000  Level Anchorage Center
03:26PM 55.5000 173.5167 234° Southwest 460 529 36,000  Level Anchorage Center
03:27PM 55.4500 173.3500 242° Southwest 460 529 36,000  Level Anchorage Center
03:28PM 55.3667 173.1333 236° Southwest 460 529 36,000  Level Anchorage Center
03:29PM 55.3000 172.9333 240° Southwest 460 529 36,000 240 Level Anchorage Center
03:30PM 55.2333 172.7667 235° Southwest 460 529 36,500 480 Climbing Anchorage Center
03:31PM 55.1500 172.5667 234° Southwest 460 529 37,000 240 Climbing Anchorage Center
03:32PM 55.0833 172.4167 232° Southwest 460 529 37,000  Level Anchorage Center
03:33PM 55.0167 172.2167 240° Southwest 460 529 37,000  Level Anchorage Center
03:34PM 54.9500 172.0500 235° Southwest 460 529 37,000  Level Anchorage Center
03:35PM 54.8833 171.9000 232° Southwest 450 518 37,000  Level Anchorage Center
03:36PM 54.8000 171.6667 238° Southwest 460 529 37,000  Level Anchorage Center
03:37PM 54.7333 171.5000 235° Southwest 460 529 37,000  Level Anchorage Center
03:38PM 54.6500 171.3167 232° Southwest 460 529 37,000  Level Anchorage Center
03:39PM 54.5833 171.1667 233° Southwest 450 518 37,000  Level Anchorage Center
03:40PM 54.5000 170.9667 234° Southwest 450 518 37,000  Level Anchorage Center
03:41PM 54.4333 170.8167 233° Southwest 450 518 37,000  Level Anchorage Center
03:42PM 54.3500 170.6167 234° Southwest 470 541 37,000  Level Anchorage Center
03:43PM 54.2833 170.4667 233° Southwest 450 518 37,000  Level Anchorage Center
03:44PM 54.2000 170.2667 235° Southwest 470 541 37,000  Level Anchorage Center
03:45PM 54.1167 170.0833 232° Southwest 460 529 37,000  Level Anchorage Center
03:46PM 54.0500 169.9333 233° Southwest 450 518 37,000  Level Anchorage Center
03:47PM 53.9667 169.7500 232° Southwest 480 552 37,000  Level Anchorage Center
03:48PM 53.9000 169.6000 233° Southwest 450 518 37,000  Level Anchorage Center
03:49PM 53.8333 169.4167 238° Southwest 450 518 37,000  Level Anchorage Center
03:50PM 53.7667 169.2667 233° Southwest 460 529 37,000  Level Anchorage Center
03:51PM 53.6833 169.0833 233° Southwest 460 529 37,000  Level Anchorage Center
03:53PM 53.5667 168.7167 242° Southwest 440 506 37,000  Level Anchorage Center
03:54PM 53.5000 168.5333 239° Southwest 440 506 37,000  Level Anchorage Center
03:56PM 53.4167 168.2333 240° Southwest 444 511 37,000  Level Anchorage Center
03:58PM 53.2833 167.8667 239° Southwest 442 509 37,000  Level Anchorage Center
04:02PM 53.0327 167.1539 239° Southwest 444 511 37,000  Level FlightAware Transoceanic
04:03PM 52.9678 166.9759 239° Southwest 444 511 37,000  Level FlightAware Transoceanic
04:04PM 52.9044 166.8149 239° Southwest 442 509 37,000  Level FlightAware Transoceanic
04:05PM 52.8404 166.6414 238° Southwest 442 509 37,000  Level FlightAware Transoceanic
04:06PM 52.7761 166.4684 238° Southwest 442 509 37,000  Level FlightAware Transoceanic
04:07PM 52.7115 166.2959 238° Southwest 442 509 37,000  Level FlightAware Transoceanic
04:07PM 52.6667 166.2000 238° Southwest 437 503 37,000  Level Anchorage Center
04:08PM 52.6467 166.1240 238° Southwest 442 509 37,000  Level FlightAware Transoceanic
04:09PM 52.5817 165.9525 238° Southwest 442 509 37,000  Level FlightAware Transoceanic
04:10PM 52.5164 165.7816 238° Southwest 442 509 37,000  Level FlightAware Transoceanic
04:11PM 52.4508 165.6111 238° Southwest 442 509 37,000  Level FlightAware Transoceanic
04:12PM 52.3850 165.4412 238° Southwest 442 509 37,000  Level FlightAware Transoceanic
04:13PM 52.3190 165.2718 237° Southwest 442 509 37,000  Level FlightAware Transoceanic
04:14PM 52.2704 165.1671 237° Southwest 437 503 37,000  Level FlightAware Transoceanic
04:15PM 52.2035 164.9967 237° Southwest 437 503 37,000  Level FlightAware Transoceanic
04:16PM 52.1363 164.8269 237° Southwest 437 503 37,000  Level FlightAware Transoceanic
04:17PM 52.0689 164.6575 237° Southwest 437 503 37,000  Level FlightAware Transoceanic
04:17PM 52.0500 164.5833 237° Southwest 442 509 37,000  Level Anchorage Center
04:18PM 52.0013 164.4887 237° Southwest 437 503 37,000  Level FlightAware Transoceanic
04:19PM 51.9334 164.3204 237° Southwest 437 503 37,000  Level FlightAware Transoceanic
04:20PM 51.8653 164.1526 237° Southwest 437 503 37,000  Level FlightAware Transoceanic
04:21PM 51.7969 163.9853 236° Southwest 437 503 37,000  Level FlightAware Transoceanic
04:22PM 51.7283 163.8186 236° Southwest 437 503 37,000  Level FlightAware Transoceanic
04:23PM 51.6435 163.5925 236° Southwest 442 509 37,000  Level FlightAware Transoceanic
04:23PM 51.6500 163.6500 236° Southwest 442 509 37,000  Level Anchorage Center
04:24PM 51.5749 163.4290 236° Southwest 442 509 37,000  Level FlightAware Transoceanic
04:25PM 51.5062 163.2661 236° Southwest 442 509 37,000  Level FlightAware Transoceanic
04:26PM 51.4372 163.1037 236° Southwest 442 509 37,000  Level FlightAware Transoceanic
04:26PM 51.3833 163.0000 236° Southwest 444 511 37,000  Level Anchorage Center
04:27PM 51.3679 162.9418 236° Southwest 442 509 37,000  Level FlightAware Transoceanic
04:28PM 51.2985 162.7803 235° Southwest 442 509 37,000  Level FlightAware Transoceanic
04:29PM 51.2342 162.6636 236° Southwest 442 509 37,000  Level FlightAware Transoceanic
04:30PM 51.1641 162.5010 235° Southwest 442 509 37,000  Level FlightAware Transoceanic
04:31PM 51.0938 162.3388 235° Southwest 442 509 37,000  Level FlightAware Transoceanic
04:32PM 51.0233 162.1771 235° Southwest 442 509 37,000  Level FlightAware Transoceanic
04:33PM 50.9597 162.0228 235° Southwest 444 511 37,000  Level FlightAware Transoceanic
04:34PM 50.8883 161.8617 235° Southwest 444 511 37,000  Level FlightAware Transoceanic
04:35PM 50.8167 161.7011 235° Southwest 444 511 37,000  Level FlightAware Transoceanic
04:36PM 50.7448 161.5409 235° Southwest 444 511 37,000  Level FlightAware Transoceanic
04:36PM 50.7000 161.4500 235° Southwest 447 514 37,000  Level Anchorage Center
04:37PM 50.6727 161.3813 234° Southwest 444 511 37,000  Level FlightAware Transoceanic
04:38PM 50.6005 161.2221 234° Southwest 444 511 37,000  Level FlightAware Transoceanic
04:39PM 50.5280 161.0635 234° Southwest 444 511 37,000  Level FlightAware Transoceanic
04:40PM 50.4553 160.9053 234° Southwest 444 511 37,000  Level FlightAware Transoceanic
04:41PM 50.3824 160.7476 234° Southwest 444 511 37,000  Level FlightAware Transoceanic
04:42PM 50.2832 160.5394 234° Southwest 447 514 37,000  Level FlightAware Transoceanic
04:43PM 50.2131 160.3892 234° Southwest 447 514 37,000  Level FlightAware Transoceanic
04:43PM 50.2000 160.3833 234° Southwest 452 520 37,000  Level Anchorage Center
04:44PM 50.1427 160.2394 234° Southwest 447 514 37,000  Level FlightAware Transoceanic
04:45PM 50.0722 160.0901 234° Southwest 447 514 37,000  Level FlightAware Transoceanic
04:46PM 50.0015 159.9412 233° Southwest 447 514 37,000  Level FlightAware Transoceanic
04:46PM 50.0000 159.9500 234° Southwest 445 512 37,000  Level Anchorage Center
04:47PM 49.9305 159.7927 233° Southwest 447 514 37,000  Level FlightAware Transoceanic
04:48PM 49.8594 159.6447 233° Southwest 447 514 37,000  Level FlightAware Transoceanic
04:49PM 49.7863 159.4964 234° Southwest 452 520 37,000  Level FlightAware Transoceanic
04:50PM 49.7167 159.3500 233° Southwest 452 520 37,000  Level FlightAware Transoceanic
04:51PM 49.6445 159.2026 233° Southwest 452 520 37,000  Level FlightAware Transoceanic
04:52PM 49.5721 159.0556 233° Southwest 452 520 37,000  Level FlightAware Transoceanic
04:53PM 49.4995 158.9090 233° Southwest 445 512 37,000  Level FlightAware Transoceanic
04:54PM 49.4267 158.7629 232° Southwest 445 512 37,000  Level FlightAware Transoceanic
04:55PM 49.3538 158.6172 232° Southwest 445 512 37,000  Level FlightAware Transoceanic
04:56PM 49.2806 158.4719 232° Southwest 445 512 37,000  Level FlightAware Transoceanic
04:57PM 49.2073 158.3271 232° Southwest 445 512 37,000  Level FlightAware Transoceanic
04:58PM 49.1338 158.1827 232° Southwest 445 512 37,000  Level FlightAware Transoceanic
04:59PM 49.0601 158.0387 232° Southwest 445 512 37,000  Level FlightAware Transoceanic
05:00PM 48.9863 157.8952 232° Southwest 445 512 37,000  Level FlightAware Transoceanic
05:01PM 48.9123 157.7520 232° Southwest 445 512 37,000  Level FlightAware Transoceanic
05:02PM 48.8381 157.6093 232° Southwest 445 512 37,000  Level FlightAware Transoceanic
05:03PM 48.7637 157.4671 232° Southwest 445 512 37,000  Level FlightAware Transoceanic
05:04PM 48.6891 157.3252 231° Southwest 445 512 37,000  Level FlightAware Transoceanic
05:05PM 48.6144 157.1838 231° Southwest 445 512 37,000  Level FlightAware Transoceanic
05:06PM 48.5395 157.0428 231° Southwest 445 512 37,000  Level FlightAware Transoceanic
05:07PM 48.4644 156.9022 231° Southwest 445 512 37,000  Level FlightAware Transoceanic
05:08PM 48.3891 156.7620 231° Southwest 445 512 37,000  Level FlightAware Transoceanic
05:09PM 48.3137 156.6222 231° Southwest 445 512 37,000  Level FlightAware Transoceanic
05:10PM 48.2381 156.4829 231° Southwest 445 512 37,000  Level FlightAware Transoceanic
05:11PM 48.1624 156.3439 231° Southwest 445 512 37,000  Level FlightAware Transoceanic
05:12PM 48.0865 156.2054 231° Southwest 445 512 37,000  Level FlightAware Transoceanic
05:13PM 48.0104 156.0673 230° Southwest 445 512 37,000  Level FlightAware Transoceanic
05:14PM 47.9341 155.9296 230° Southwest 445 512 37,000  Level FlightAware Transoceanic
05:15PM 47.8577 155.7923 230° Southwest 445 512 37,000  Level FlightAware Transoceanic
05:16PM 47.7811 155.6553 230° Southwest 445 512 37,000  Level FlightAware Transoceanic
05:17PM 47.7044 155.5188 230° Southwest 445 512 37,000  Level FlightAware Transoceanic
05:18PM 47.6275 155.3828 230° Southwest 445 512 37,000  Level FlightAware Transoceanic
05:19PM 47.5504 155.2471 230° Southwest 445 512 37,000  Level FlightAware Transoceanic
05:20PM 47.4732 155.1117 230° Southwest 445 512 37,000  Level FlightAware Transoceanic
05:21PM 47.3958 154.9768 230° Southwest 445 512 37,000  Level FlightAware Transoceanic
05:22PM 47.3183 154.8423 230° Southwest 445 512 37,000  Level FlightAware Transoceanic
05:23PM 47.2406 154.7082 229° Southwest 445 512 37,000  Level FlightAware Transoceanic
05:24PM 47.1627 154.5745 229° Southwest 445 512 37,000  Level FlightAware Transoceanic
05:25PM 47.0847 154.4412 229° Southwest 445 512 37,000  Level FlightAware Transoceanic
05:26PM 47.0066 154.3082 229° Southwest 445 512 37,000  Level FlightAware Transoceanic
05:27PM 46.9283 154.1757 229° Southwest 445 512 37,000  Level FlightAware Transoceanic
05:28PM 46.8498 154.0435 229° Southwest 445 512 37,000  Level FlightAware Transoceanic
05:29PM 46.7712 153.9117 229° Southwest 445 512 37,000  Level FlightAware Transoceanic
05:30PM 46.6924 153.7803 229° Southwest 445 512 37,000  Level FlightAware Transoceanic
05:31PM 46.6135 153.6494 229° Southwest 445 512 37,000  Level FlightAware Transoceanic
05:32PM 46.5344 153.5187 229° Southwest 445 512 37,000  Level FlightAware Transoceanic
05:33PM 46.4552 153.3885 228° Southwest 445 512 37,000  Level FlightAware Transoceanic
05:34PM 46.3758 153.2586 228° Southwest 445 512 37,000  Level FlightAware Transoceanic
05:35PM 46.2963 153.1291 228° Southwest 445 512 37,000  Level FlightAware Transoceanic
05:36PM 46.2183 153.0027 228° Southwest  Level FlightAware Approximate
05:37PM 46.1402 152.8765 228° Southwest  Level FlightAware Approximate
05:38PM 46.1414 152.8798 228° Southwest  Level FlightAware Approximate
05:39PM 46.0626 152.7547 228° Southwest  Level FlightAware Approximate
05:40PM 45.9837 152.6300 228° Southwest  Level FlightAware Approximate
05:41PM 45.9047 152.5056 228° Southwest  Level FlightAware Approximate
05:42PM 45.8255 152.3815 228° Southwest  Level FlightAware Approximate
05:43PM 45.7462 152.2578 227° Southwest  Level FlightAware Approximate
05:44PM 45.6668 152.1345 227° Southwest  Level FlightAware Approximate
05:45PM 45.5872 152.0115 227° Southwest  Level FlightAware Approximate
05:46PM 45.5075 151.8889 227° Southwest  Level FlightAware Approximate
05:47PM 45.4277 151.7666 227° Southwest  Level FlightAware Approximate
05:48PM 45.3477 151.6446 227° Southwest  Level FlightAware Approximate
05:49PM 45.2676 151.5230 227° Southwest  Level FlightAware Approximate
05:50PM 45.1874 151.4017 227° Southwest  Level FlightAware Approximate
05:51PM 45.1070 151.2808 227° Southwest  Level FlightAware Approximate
05:52PM 45.0266 151.1602 227° Southwest  Level FlightAware Approximate
05:53PM 44.9460 151.0400 227° Southwest  Level FlightAware Approximate
05:54PM 44.8652 150.9201 226° Southwest  Level FlightAware Approximate
05:55PM 44.7844 150.8005 226° Southwest  Level FlightAware Approximate
05:56PM 44.7034 150.6813 226° Southwest  Level FlightAware Approximate
05:57PM 44.6223 150.5624 226° Southwest  Level FlightAware Approximate
05:58PM 44.5411 150.4438 226° Southwest  Level FlightAware Approximate
05:59PM 44.4597 150.3256 226° Southwest  Level FlightAware Approximate
06:00PM 44.3783 150.2077 226° Southwest  Level FlightAware Approximate
06:01PM 44.2967 150.0901 226° Southwest  Level FlightAware Approximate
06:02PM 44.2150 149.9729 226° Southwest  Level FlightAware Approximate
06:03PM 44.1331 149.8559 226° Southwest  Level FlightAware Approximate
06:04PM 44.0512 149.7393 226° Southwest  Level FlightAware Approximate
06:05PM 43.9691 149.6230 226° Southwest  Level FlightAware Approximate
06:06PM 43.8869 149.5071 226° Southwest  Level FlightAware Approximate
06:07PM 43.8046 149.3914 225° Southwest  Level FlightAware Approximate
06:08PM 43.7222 149.2761 225° Southwest  Level FlightAware Approximate
06:09PM 43.6397 149.1611 225° Southwest  Level FlightAware Approximate
06:10PM 43.5570 149.0464 225° Southwest  Level FlightAware Approximate
06:11PM 43.4743 148.9320 225° Southwest  Level FlightAware Approximate
06:12PM 43.3914 148.8180 225° Southwest  Level FlightAware Approximate
06:12PM 43.4290 148.8700 225° Southwest 398 458 38,000  Level FlightAware
06:13PM 43.3084 148.7042 225° Southwest  Level FlightAware Approximate
06:13PM 43.3660 148.7820 225° Southwest 398 458 38,000  Level FlightAware
06:13PM 43.3160 148.7140 225° Southwest 398 458 38,000  Level FlightAware
06:14PM 43.2600 148.6370 225° Southwest 405 466 38,000  Level FlightAware
06:14PM 43.2160 148.5780 224° Southwest 406 467 38,000  Level FlightAware
06:15PM 43.1330 148.4640 225° Southwest 407 468 38,000  Level FlightAware
06:16PM 43.0830 148.3970 224° Southwest 408 470 38,000  Level FlightAware
06:17PM 43.0220 148.3140 225° Southwest 408 470 38,000  Level FlightAware
06:18PM 42.9590 148.2300 224° Southwest 408 470 38,000  Level FlightAware
06:18PM 42.8990 148.1490 225° Southwest 408 470 38,000  Level FlightAware
06:19PM 42.8470 148.0790 225° Southwest 409 471 38,000  Level FlightAware
06:20PM 42.7920 148.0060 224° Southwest 408 470 38,000  Level FlightAware
06:20PM 42.7290 147.9220 224° Southwest 408 470 38,000  Level FlightAware
06:21PM 42.6930 147.8740 224° Southwest 408 470 38,000  Level FlightAware
06:22PM 42.6230 147.7820 224° Southwest 408 470 38,000  Level FlightAware
06:23PM 42.5630 147.7020 224° Southwest 408 470 38,000  Level FlightAware
06:23PM 42.5000 147.6190 224° Southwest 407 468 38,000  Level FlightAware
06:24PM 42.4490 147.5510 225° Southwest 405 466 38,000  Level FlightAware
06:25PM 42.3960 147.4820 224° Southwest 405 466 38,000  Level FlightAware
06:25PM 42.3360 147.4030 224° Southwest 404 465 38,000  Level FlightAware
06:26PM 42.2460 147.2850 224° Southwest 403 464 38,000  Level FlightAware
06:27PM 42.1850 147.2070 223° Southwest 403 464 38,000  Level FlightAware
06:28PM 42.1320 147.1380 224° Southwest 403 464 38,000  Level FlightAware
06:29PM 42.0730 147.0620 224° Southwest 403 464 38,000  Level FlightAware
06:30PM 42.0020 146.9700 224° Southwest 403 464 38,000  Level FlightAware
06:30PM 41.9460 146.8970 224° Southwest 402 463 38,000  Level FlightAware
06:31PM 41.8810 146.8140 224° Southwest 401 461 38,000  Level FlightAware
06:32PM 41.8340 146.7530 224° Southwest 401 461 38,000  Level FlightAware
06:32PM 41.7760 146.6790 224° Southwest 400 460 38,000  Level FlightAware
06:33PM 41.7210 146.6090 224° Southwest 399 459 38,000  Level FlightAware
06:34PM 41.6730 146.5480 224° Southwest 398 458 38,000  Level FlightAware
06:34PM 41.6040 146.4600 224° Southwest 398 458 38,000  Level FlightAware
06:35PM 41.5510 146.3940 223° Southwest 396 456 38,000  Level FlightAware
06:36PM 41.4910 146.3170 224° Southwest 396 456 38,000  Level FlightAware
06:37PM 41.4300 146.2400 223° Southwest 388 447 38,000  Level FlightAware
06:37PM 41.3670 146.1610 223° Southwest 388 447 38,000  Level FlightAware
06:38PM 41.2880 146.0620 223° Southwest 394 453 38,000  Level FlightAware
06:39PM 41.2300 145.9900 223° Southwest 395 455 38,000  Level FlightAware
06:40PM 41.1600 145.9020 223° Southwest 396 456 38,000  Level FlightAware
06:41PM 41.0990 145.8270 223° Southwest 397 457 38,000  Level FlightAware
06:41PM 41.0500 145.7660 223° Southwest 397 457 38,000  Level FlightAware
06:42PM 40.9920 145.6940 223° Southwest 397 457 38,000  Level FlightAware
06:43PM 40.9380 145.6280 223° Southwest 397 457 38,000  Level FlightAware
06:43PM 40.8820 145.5590 223° Southwest 396 456 38,000  Level FlightAware
06:44PM 40.8190 145.4820 223° Southwest 396 456 38,000  Level FlightAware
06:45PM 40.7610 145.4110 223° Southwest 396 456 38,000  Level FlightAware
06:46PM 40.6790 145.3110 223° Southwest 394 453 38,000  Level FlightAware
06:47PM 40.6330 145.2560 222° Southwest 394 453 38,000  Level FlightAware
06:48PM 40.5600 145.1660 223° Southwest 394 453 38,000  Level FlightAware
06:48PM 40.5190 145.1170 222° Southwest 394 453 38,000  Level FlightAware
06:49PM 40.4610 145.0490 222° Southwest 394 453 38,000  Level FlightAware
06:50PM 40.3790 144.9480 223° Southwest 394 453 38,000  Level FlightAware
06:51PM 40.3180 144.8740 223° Southwest 382 440 38,000  Level FlightAware
06:51PM 40.2740 144.8220 222° Southwest 382 440 38,000  Level FlightAware
06:52PM 40.1930 144.7240 223° Southwest 379 436 38,000  Level FlightAware
06:53PM 40.1500 144.6710 223° Southwest 379 436 38,000  Level FlightAware
06:54PM 40.1060 144.6170 223° Southwest 379 436 38,000  Level FlightAware
06:54PM 40.0630 144.5640 223° Southwest 379 436 38,000  Level FlightAware
06:55PM 40.0190 144.5110 223° Southwest 379 436 38,000  Level FlightAware
06:56PM 39.9650 144.4450 223° Southwest 379 436 38,000  Level FlightAware
06:56PM 39.9210 144.3920 223° Southwest 379 436 38,000  Level FlightAware
06:57PM 39.8770 144.3390 223° Southwest 379 436 38,000  Level FlightAware
06:58PM 39.8340 144.2860 223° Southwest 379 436 38,000  Level FlightAware
06:58PM 39.7900 144.2330 223° Southwest 379 436 38,000  Level FlightAware
06:59PM 39.7360 144.1670 223° Southwest 379 436 38,000  Level FlightAware
07:00PM 39.6920 144.1140 223° Southwest 379 436 38,000  Level FlightAware
07:01PM 39.6480 144.0610 223° Southwest 379 436 38,000  Level FlightAware
07:01PM 39.6050 144.0080 224° Southwest 379 436 38,000  Level FlightAware
07:04PM 39.4019 143.7784 221° Southwest  Level FlightAware Approximate
07:05PM 39.3135 143.6790 221° Southwest  Level FlightAware Approximate
07:06PM 39.2249 143.5798 221° Southwest  Level FlightAware Approximate
07:07PM 39.1364 143.4807 221° Southwest  Level FlightAware Approximate
07:08PM 39.0480 143.3816 221° Southwest  Level FlightAware Approximate
07:09PM 38.9595 143.2828 221° Southwest  Level FlightAware Approximate
07:10PM 38.8631 143.2024 197° South  Level FlightAware Approximate
07:11PM 38.7509 143.1591 197° South  Level FlightAware Approximate
07:12PM 38.6387 143.1160 197° South  Level FlightAware Approximate
07:13PM 38.5264 143.0730 197° South  Level FlightAware Approximate
07:13PM 38.2660 143.2180 197° South 402 463 38,000  Level FlightAware
07:14PM 38.1590 143.1660 201° Southwest 402 463 38,000  Level FlightAware
07:14PM 38.0860 143.1300 201° Southwest 402 463 38,000  Level FlightAware
07:15PM 38.0140 143.0940 202° Southwest 411 473 38,000  Level FlightAware
07:16PM 37.9370 143.0570 201° Southwest 411 473 38,000  Level FlightAware
07:16PM 37.8630 143.0210 201° Southwest 412 474 38,000  Level FlightAware
07:17PM 37.7840 142.9820 201° Southwest 414 476 38,000  Level FlightAware
07:18PM 37.7190 142.9500 201° Southwest 416 479 38,000  Level FlightAware
07:19PM 37.6400 142.9120 201° Southwest 411 473 38,000  Level FlightAware
07:19PM 37.5580 142.8730 201° Southwest 412 474 38,000  Level FlightAware
07:20PM 37.4860 142.8380 201° Southwest 413 475 38,000  Level FlightAware
07:21PM 37.4220 142.8070 201° Southwest 413 475 38,000  Level FlightAware
07:21PM 37.3300 142.7630 201° Southwest 415 478 38,000  Level FlightAware
07:22PM 37.2790 142.7380 201° Southwest 423 487 38,000  Level FlightAware
07:23PM 37.1850 142.6930 201° Southwest 424 488 38,000  Level FlightAware
07:23PM 37.1160 142.6600 201° Southwest 423 487 38,000  Level FlightAware
07:24PM 37.0270 142.6180 201° Southwest 415 478 38,000  Level FlightAware
07:25PM 36.9450 142.5790 201° Southwest 414 476 38,000  Level FlightAware
07:25PM 36.8830 142.5480 202° Southwest 418 481 38,000  Level FlightAware
07:26PM 36.8000 142.5010 204° Southwest 414 476 38,000  Level FlightAware
07:27PM 36.7380 142.4630 206° Southwest 411 473 38,000  Level FlightAware
07:28PM 36.6710 142.4220 206° Southwest 411 473 38,000  Level FlightAware
07:28PM 36.5960 142.3760 206° Southwest 411 473 38,000 -780 Level FlightAware
07:29PM 36.5170 142.3280 206° Southwest 415 478 36,900 -1,740 Descending FlightAware
07:30PM 36.4460 142.2850 206° Southwest 431 496 35,600 -2,160 Descending FlightAware
07:30PM 36.3710 142.2410 205° Southwest 434 499 33,900 -2,580 Descending FlightAware
07:31PM 36.2930 142.1940 206° Southwest 430 495 32,000 -2,580 Descending FlightAware
07:32PM 36.2300 142.1420 214° Southwest 409 471 30,500 -2,280 Descending FlightAware
07:32PM 36.1750 142.0920 216° Southwest 401 461 29,200 -2,340 Descending FlightAware
07:33PM 36.0990 142.0250 215° Southwest 394 453 27,200 -2,160 Descending FlightAware
07:34PM 36.0580 141.9800 222° Southwest 380 437 26,200 -1,860 Descending FlightAware
07:34PM 36.0430 141.9480 240° Southwest 365 420 25,500 -2,400 Descending FlightAware
07:35PM 36.0210 141.8440 255° West 354 407 23,600 -2,340 Descending FlightAware
07:36PM 36.0070 141.7560 259° West 347 399 22,000 -1,980 Descending FlightAware
07:36PM 35.9940 141.6830 258° West 341 392 20,800 -1,920 Descending FlightAware
07:37PM 35.9820 141.6090 259° West 333 383 19,500 -1,860 Descending FlightAware
07:38PM 35.9670 141.5260 257° West 328 377 18,200 -1,560 Descending FlightAware
07:38PM 35.9530 141.4500 257° West 321 369 17,300 -1,140 Descending FlightAware
07:39PM 35.9400 141.3710 259° West 319 367 16,600 -1,020 Descending FlightAware
07:40PM 35.9230 141.2750 258° West 318 366 15,600 -1,500 Descending FlightAware
07:41PM 35.9110 141.2110 257° West 319 367 14,400 -1,920 Descending FlightAware
07:41PM 35.8970 141.1290 258° West 321 369 12,900 -1,920 Descending FlightAware
07:42PM 35.8840 141.0560 258° West 322 371 11,600 -1,920 Descending FlightAware
07:43PM 35.8810 140.9830 267° West 314 361 10,400 -1,080 Descending FlightAware
07:44PM 35.8850 140.9110 274° West 283 326 10,100 -600 Descending FlightAware
07:44PM 35.8870 140.8770 274° West 277 319 9,700 -1,500 Descending FlightAware
07:44PM 35.8890 140.8420 274° West 275 316 9,100 -1,740 Descending FlightAware
07:45PM 35.8920 140.7940 274° West 278 320 8,400 -1,440 Descending FlightAware
07:45PM 35.8950 140.7550 275° West 279 321 7,800 -1,140 Descending FlightAware
07:46PM 35.8980 140.7080 275° West 274 315 7,400 -840 Descending FlightAware
07:46PM 35.9010 140.6620 275° West 266 306 7,000 -900 Descending FlightAware
07:47PM 35.9040 140.6230 275° West 262 302 6,600 -1,020 Descending FlightAware
07:47PM 35.9080 140.5800 277° West 266 306 6,100 -480 Descending FlightAware
07:47PM 35.9120 140.5410 277° West 270 311 6,200 -120 Climbing FlightAware
07:48PM 35.9200 140.4950 282° West 267 307 6,000 -840 Descending FlightAware
07:48PM 35.9300 140.4530 286° West 267 307 5,400 -1,320 Descending FlightAware
07:49PM 35.9400 140.4140 288° West 267 307 4,800 -1,320 Descending FlightAware
07:49PM 35.9470 140.3760 283° West 261 300 4,200 -1,020 Descending FlightAware
07:50PM 35.9450 140.3360 266° West 244 281 3,900 -600 Descending FlightAware
07:50PM 35.9430 140.2970 266° West 229 264 3,700 -420 Descending FlightAware
07:51PM 35.9380 140.2840 245° Southwest 205 236 3,600 -240 Descending FlightAware
07:51PM 35.9290 140.2760 216° Southwest 191 220 3,600 -240 Level FlightAware
07:51PM 35.9150 140.2750 183° South 180 207 3,500 -960 Descending FlightAware
07:51PM 35.8910 140.2840 163° South 183 211 2,900 -1,080 Descending FlightAware
07:52PM 35.8770 140.2940 150° Southeast 181 208 2,600 -900 Descending FlightAware
07:52PM 35.8550 140.3100 149° Southeast 178 205 2,100 -840 Descending FlightAware
07:53PM 35.8370 140.3230 150° Southeast 170 196 1,700 -600 Descending FlightAware
07:53PM 35.8130 140.3400 150° Southeast 170 196 1,500 -780 Descending FlightAware
07:54PM 35.7950 140.3540 148° Southeast 135 155 800 -720 Descending FlightAware
07:55PM 35.7780 140.3660 150° Southeast 130 150 700 -180 Descending FlightAware
07:57PM 35.7647 140.3864 253° West  Level Estimated
07:58PM 35.7647 140.3864 253° West  Level Estimated
07:59PM 35.7647 140.3864 253° West  Level Estimated
08:00PM 35.7647 140.3864 253° West  Level Estimated
08:01PM 35.7647 140.3864 253° West  Level Estimated
08:02PM 35.7647 140.3864 253° West  Level Estimated
08:03PM 35.7647 140.3864 253° West  Level Estimated
08:04PM 35.7647 140.3864 253° West  Level Estimated
08:05PM 35.7647 140.3864 253° West  Level Estimated